CLT TRACON Summary / KCLT TAF
CLT TRACON Summary:
A weak cold front will slowly cross the Appalachians, supporting isolated thunderstorms south of CLT after 19z, becoming more scattered after 21z. Cells will move to the east at 20-30kts. Expect VFR conditions under a SCT/BKN060 deck. Surface winds will be west to southwest at 5-8kts and occasionally variable. Flight hazards in the TRACON airspace: None expected.

Updated: 6/24/2016 12:30 PM
CLT Terminal Aerodrome Forecast:

FTUS31 KCLT 242321
KCLT 242320Z 2500/2524 33004KT P6SM SCT060 BKN250
     FM250300 01004KT P6SM FEW070
     FM251400 03007KT P6SM FEW060 SCT250
CLT TRACON Area Remark:
ISOLATED TS POSSIBLE ALL QUADS FROM 20-00Z.
Convective Gate Forecast / Collaborative Convective Forecast Product / Vertical Wind Profile
Convective Gate Forecast
-->
AIRMETs & SIGMETS/ Southeast Radar loop / Satellite Image (click on image to enlarge)

Southeast Radar Loop

 



USA.gov is the U.S. government's official web portal to all federal, state and local government web resources and services.